Current Weather

Mardin

Mardin, Turkey (LTCR)

Report from: Thursday, July 18, 2024 12:50 PM UTC
Current time: Thursday, July 18, 2024 1:50 PM UTC

Nearby weather – Weather history – Daily summaries
Weather forecast

Temperature41.0°C (105.8°F)
Heat index39.2°C (102.5°F)
Dew point9.0°C (48.2°F)
Winds 5 kts (2.6 m/s, 5.8 mph) Vrb
Winds variableWinds variable
Visibility6.2 mi. (10 km)
Clouds Few clouds 4,000 ft. (1,219 m)
Altimeter29.56 in.Hg (1001 mB)
Relative humidity15 %
Density altitude3,490 ft. (1,064 m)
Flight conditions Visual Meteorological Conditions
Raw dataLTCR 181250Z VRB05KT 9999 FEW040 41/09 Q1001
An error has occurred. This application may no longer respond until reloaded. Reload 🗙